Time;durP1;ratioP1;P1;durP2;ratioP2;P2;SDS_P1;SDS_P2;PMS_P1;PMS_P2;Temp;Humidity;BMP_temperature;BMP_pressure;BME280_temperature;BME280_humidity;BME280_pressure;Samples;Min_cycle;Max_cycle;Signal;HPM_P1;HPM_P2
2021/09/25 00:01:59;;;;;;;20.73;13.65;;;;;;;16.12;100.00;100549.13;2616635;36;20030;-58
2021/09/25 00:04:26;;;;;;;17.50;14.10;;;;;;;16.11;100.00;100540.50;2617999;31;20482;-56
2021/09/25 00:06:53;;;;;;;18.60;13.40;;;;;;;16.13;100.00;100545.66;2616208;36;20046;-59
2021/09/25 00:09:21;;;;;;;19.73;13.70;;;;;;;16.12;100.00;100552.56;2616834;31;20034;-57
2021/09/25 00:11:48;;;;;;;16.55;12.57;;;;;;;16.11;100.00;100548.25;2616397;36;20038;-58
2021/09/25 00:14:15;;;;;;;19.23;13.20;;;;;;;16.11;100.00;100544.81;2616775;31;20080;-55
2021/09/25 00:16:42;;;;;;;16.63;12.32;;;;;;;16.09;100.00;100546.56;2616373;36;20038;-58
2021/09/25 00:19:09;;;;;;;14.10;12.18;;;;;;;16.05;100.00;100543.09;2616240;36;20026;-55
2021/09/25 00:21:37;;;;;;;19.88;14.13;;;;;;;16.07;100.00;100553.44;2616367;36;20035;-55
2021/09/25 00:24:05;;;;;;;15.05;11.95;;;;;;;16.05;100.00;100540.53;2617138;31;20038;-55
2021/09/25 00:26:32;;;;;;;17.85;12.48;;;;;;;16.05;100.00;100543.09;2616883;31;20516;-54
2021/09/25 00:28:59;;;;;;;17.42;12.43;;;;;;;16.03;100.00;100550.81;2616419;36;20593;-54
2021/09/25 00:31:26;;;;;;;18.63;12.20;;;;;;;16.03;100.00;100549.97;2617549;31;20038;-53
2021/09/25 00:33:53;;;;;;;17.25;12.75;;;;;;;16.01;100.00;100547.41;2616739;36;20542;-56
2021/09/25 00:36:20;;;;;;;16.98;12.40;;;;;;;16.00;100.00;100540.50;2617202;36;20030;-55
2021/09/25 00:38:47;;;;;;;15.13;12.77;;;;;;;16.00;100.00;100535.34;2616696;31;20041;-55
2021/09/25 00:41:14;;;;;;;18.77;12.65;;;;;;;16.02;100.00;100536.19;2616658;36;20030;-56
2021/09/25 00:43:42;;;;;;;16.73;12.88;;;;;;;16.02;100.00;100538.78;2616756;36;20069;-54
2021/09/25 00:46:13;;;;;;;17.60;12.20;;;;;;;16.02;100.00;100537.94;2616475;36;20034;-56
2021/09/25 00:48:41;;;;;;;18.10;11.82;;;;;;;16.02;100.00;100541.38;2617481;31;20165;-58
2021/09/25 00:51:08;;;;;;;15.18;11.55;;;;;;;16.04;100.00;100542.25;2616420;31;20034;-58
2021/09/25 00:53:35;;;;;;;15.82;11.75;;;;;;;16.09;100.00;100541.38;2616551;36;20034;-58
2021/09/25 00:56:04;;;;;;;15.65;12.15;;;;;;;16.13;100.00;100543.97;2616648;36;20030;-50
2021/09/25 00:58:31;;;;;;;17.05;12.40;;;;;;;16.12;100.00;100543.97;2618576;36;20030;-51
2021/09/25 01:00:58;;;;;;;16.17;12.13;;;;;;;16.11;100.00;100550.00;2616634;31;20030;-55
2021/09/25 01:03:26;;;;;;;15.00;12.18;;;;;;;16.13;100.00;100550.84;2616413;36;20037;-55
2021/09/25 01:05:54;;;;;;;16.33;12.07;;;;;;;16.11;100.00;100552.56;2616488;36;20053;-56
2021/09/25 01:08:22;;;;;;;16.42;12.82;;;;;;;16.13;100.00;100554.31;2616459;36;20029;-55
2021/09/25 01:10:54;;;;;;;15.30;11.30;;;;;;;16.14;100.00;100553.44;2620153;31;20045;-54
2021/09/25 01:13:22;;;;;;;16.85;11.82;;;;;;;16.12;100.00;100549.13;2619742;31;20022;-53
2021/09/25 01:15:50;;;;;;;14.52;11.70;;;;;;;16.14;100.00;100552.59;2619249;31;20026;-57
2021/09/25 01:18:17;;;;;;;15.88;12.10;;;;;;;16.15;100.00;100550.00;2620875;31;20023;-57
2021/09/25 01:20:45;;;;;;;16.92;11.93;;;;;;;16.15;100.00;100550.00;2619354;36;20112;-55
2021/09/25 01:23:12;;;;;;;15.45;11.63;;;;;;;16.17;100.00;100549.97;2618540;36;20038;-59
2021/09/25 01:25:40;;;;;;;15.65;11.95;;;;;;;16.17;100.00;100557.72;2615142;36;20173;-54
2021/09/25 01:28:07;;;;;;;13.68;11.10;;;;;;;16.15;100.00;100557.75;2615157;31;20031;-55
2021/09/25 01:30:35;;;;;;;15.48;11.90;;;;;;;16.13;100.00;100546.56;2614722;36;20042;-58
2021/09/25 01:33:02;;;;;;;15.88;12.70;;;;;;;16.13;100.00;100554.31;2614905;31;20625;-53
2021/09/25 01:35:29;;;;;;;14.70;11.48;;;;;;;16.13;100.00;100559.47;2615953;31;20094;-52
2021/09/25 01:37:57;;;;;;;15.65;11.90;;;;;;;16.09;100.00;100556.91;2616415;36;20710;-51
2021/09/25 01:40:24;;;;;;;14.73;11.48;;;;;;;16.12;100.00;100557.72;2620007;31;20446;-58
2021/09/25 01:42:51;;;;;;;13.80;11.65;;;;;;;16.14;100.00;100557.75;2617449;36;20037;-57
2021/09/25 01:45:19;;;;;;;13.88;11.30;;;;;;;16.09;100.00;100551.72;2617793;31;20023;-58
2021/09/25 01:47:46;;;;;;;15.77;11.52;;;;;;;16.10;100.00;100553.44;2616509;36;20050;-55
2021/09/25 01:50:15;;;;;;;14.52;11.35;;;;;;;16.12;100.00;100551.69;2616996;31;20057;-53
2021/09/25 01:52:42;;;;;;;17.13;11.73;;;;;;;16.14;100.00;100544.84;2616524;36;20049;-55
2021/09/25 01:55:10;;;;;;;14.32;11.90;;;;;;;16.14;100.00;100550.00;2623372;31;20038;-57
2021/09/25 01:57:38;;;;;;;17.75;12.18;;;;;;;16.11;100.00;100547.41;2619225;36;20031;-57
2021/09/25 02:00:06;;;;;;;16.30;12.07;;;;;;;16.15;100.00;100551.72;2620885;36;20029;-57
2021/09/25 02:02:34;;;;;;;14.55;11.32;;;;;;;16.14;100.00;100555.16;2630655;31;20038;-59
2021/09/25 02:05:02;;;;;;;13.32;11.88;;;;;;;16.12;100.00;100552.56;2621210;31;20038;-60
2021/09/25 02:07:29;;;;;;;15.18;12.68;;;;;;;16.14;100.00;100552.59;2617596;31;20453;-58
2021/09/25 02:09:56;;;;;;;17.00;11.88;;;;;;;16.15;100.00;100551.72;2618600;36;20061;-57
2021/09/25 02:12:23;;;;;;;14.98;12.38;;;;;;;16.15;100.00;100551.72;2616738;36;20023;-60
2021/09/25 02:14:51;;;;;;;14.43;12.15;;;;;;;16.12;100.00;100556.88;2616697;31;20037;-59
2021/09/25 02:17:21;;;;;;;13.90;10.98;;;;;;;16.13;100.00;100563.75;2617640;31;20030;-60
2021/09/25 02:19:49;;;;;;;16.08;12.20;;;;;;;16.14;100.00;100556.03;2616994;31;20072;-56
2021/09/25 02:22:17;;;;;;;14.63;10.95;;;;;;;16.13;100.00;100556.00;2616556;36;20123;-58
2021/09/25 02:24:45;;;;;;;16.05;12.25;;;;;;;16.12;100.00;100554.28;2616500;36;20031;-59
2021/09/25 02:27:12;;;;;;;15.65;12.65;;;;;;;16.17;100.00;100548.25;2616456;31;20080;-56
2021/09/25 02:29:40;;;;;;;15.02;12.55;;;;;;;16.22;100.00;100550.84;2617029;36;20026;-57
2021/09/25 02:32:07;;;;;;;13.93;12.05;;;;;;;16.19;100.00;100556.88;2616228;36;20031;-57
2021/09/25 02:34:35;;;;;;;16.10;12.55;;;;;;;16.21;100.00;100554.28;2616385;36;20073;-55
2021/09/25 02:37:04;;;;;;;15.93;12.93;;;;;;;16.23;100.00;100565.50;2616712;31;20046;-59
2021/09/25 02:39:33;;;;;;;14.75;12.20;;;;;;;16.22;100.00;100567.25;2615949;31;20039;-61
2021/09/25 02:42:00;;;;;;;16.13;11.68;;;;;;;16.19;100.00;100566.38;2616556;36;20061;-58
2021/09/25 02:44:27;;;;;;;15.43;11.23;;;;;;;16.19;100.00;100562.06;2617594;31;20031;-57
2021/09/25 02:46:55;;;;;;;12.70;11.18;;;;;;;16.20;100.00;100573.25;2616173;31;20069;-57
2021/09/25 02:49:22;;;;;;;15.95;11.98;;;;;;;16.19;100.00;100568.94;2616554;36;20022;-55
2021/09/25 02:51:50;;;;;;;15.85;11.80;;;;;;;16.20;100.00;100570.66;2626702;36;20034;-55
2021/09/25 02:54:17;;;;;;;15.30;12.02;;;;;;;16.21;100.00;100573.25;2616329;31;20023;-60
2021/09/25 02:56:44;;;;;;;16.27;11.35;;;;;;;16.18;100.00;100573.25;2618121;31;20023;-59
2021/09/25 02:59:11;;;;;;;14.15;11.75;;;;;;;16.17;100.00;100573.25;2617474;36;20108;-58
2021/09/25 03:01:45;;;;;;;13.00;11.05;;;;;;;16.14;100.00;100571.53;2616125;31;20034;-57
2021/09/25 03:04:13;;;;;;;14.88;11.88;;;;;;;16.13;100.00;100569.81;2616777;31;20090;-59
2021/09/25 03:06:40;;;;;;;17.85;12.40;;;;;;;16.16;100.00;100563.75;2615558;36;20113;-55
2021/09/25 03:09:07;;;;;;;18.52;11.95;;;;;;;16.16;100.00;100568.94;2615727;31;20034;-58
2021/09/25 03:11:34;;;;;;;15.65;11.93;;;;;;;16.16;100.00;100571.53;2615957;31;20554;-56
2021/09/25 03:14:01;;;;;;;14.10;10.82;;;;;;;16.15;100.00;100568.06;2615282;36;20042;-59
2021/09/25 03:16:29;;;;;;;15.20;12.13;;;;;;;16.16;100.00;100568.94;2616385;36;20034;-59
2021/09/25 03:18:56;;;;;;;12.57;11.18;;;;;;;16.15;100.00;100572.38;2616325;31;20045;-59
2021/09/25 03:21:23;;;;;;;14.25;11.20;;;;;;;16.15;100.00;100578.41;2616796;31;20046;-56
2021/09/25 03:23:50;;;;;;;15.65;11.05;;;;;;;16.12;100.00;100577.53;2616481;31;20026;-60
2021/09/25 03:26:17;;;;;;;13.45;11.45;;;;;;;16.12;100.00;100580.13;2616399;36;20031;-59
2021/09/25 03:28:45;;;;;;;14.32;11.80;;;;;;;16.07;100.00;100577.53;2616638;31;20037;-58
2021/09/25 03:31:12;;;;;;;14.07;10.57;;;;;;;16.03;100.00;100581.81;2622842;31;20023;-54
2021/09/25 03:33:39;;;;;;;14.02;10.82;;;;;;;16.06;100.00;100585.28;2620004;31;19953;-57
2021/09/25 03:36:07;;;;;;;15.73;11.73;;;;;;;16.03;100.00;100589.56;2616501;36;20430;-56
2021/09/25 09:38:50;;;;;;;;;;;;;;;19.55;100.00;100792.94;1596767;36;191218454;31
2021/09/25 09:41:19;;;;;;;12.93;11.15;;;;;;;19.26;100.00;100792.34;2579861;36;2018039;-57
2021/09/25 09:43:46;;;;;;;12.15;11.05;;;;;;;19.15;100.00;100789.84;2616685;36;20565;-52
2021/09/25 09:46:14;;;;;;;13.98;11.98;;;;;;;18.79;100.00;100797.00;2616484;31;20042;-50
2021/09/25 09:48:44;;;;;;;15.15;13.07;;;;;;;18.75;100.00;100786.66;2617197;31;20122;-57
2021/09/25 09:51:12;;;;;;;16.80;13.50;;;;;;;18.67;100.00;100796.19;2616989;31;20030;-57
2021/09/25 09:53:49;;;;;;;16.92;12.60;;;;;;;18.66;100.00;100799.66;2615364;36;20037;-53
2021/09/25 09:56:22;;;;;;;13.52;12.13;;;;;;;18.68;100.00;100810.91;2615472;36;20069;-53
2021/09/25 09:59:00;;;;;;;12.32;10.43;;;;;;;18.87;100.00;100806.50;2579943;36;2004571;-51
2021/09/25 10:01:28;;;;;;;11.88;10.68;;;;;;;18.92;100.00;100813.38;2616459;31;20592;-51
2021/09/25 10:03:59;;;;;;;12.23;11.02;;;;;;;19.00;100.00;100808.13;2616714;36;20536;-50
2021/09/25 10:06:27;;;;;;;11.50;10.30;;;;;;;19.27;100.00;100801.84;2616186;36;20031;-54
2021/09/25 10:08:55;;;;;;;11.25;9.93;;;;;;;19.48;100.00;100806.84;2616652;31;20574;-52
2021/09/25 10:11:23;;;;;;;11.68;10.05;;;;;;;19.31;100.00;100811.34;2616167;36;20029;-53
2021/09/25 10:13:53;;;;;;;11.98;10.77;;;;;;;19.20;100.00;100813.16;2616282;36;20057;-51
2021/09/25 10:16:21;;;;;;;11.93;10.23;;;;;;;19.20;100.00;100810.56;2616322;31;20034;-54
2021/09/25 10:18:50;;;;;;;15.45;11.10;;;;;;;19.21;100.00;100817.47;2616532;36;20428;-53
2021/09/25 10:21:19;;;;;;;11.57;10.48;;;;;;;19.29;100.00;100819.16;2616686;31;20039;-50
2021/09/25 10:24:04;;;;;;;10.80;9.70;;;;;;;19.38;100.00;100826.00;2616002;36;20027;-52
2021/09/25 10:26:32;;;;;;;12.55;10.77;;;;;;;19.32;100.00;100828.66;2580679;31;2004426;-51
2021/09/25 10:29:03;;;;;;;11.68;10.20;;;;;;;19.34;100.00;100821.72;2616351;36;20034;-54
2021/09/25 10:31:31;;;;;;;10.55;9.55;;;;;;;19.36;100.00;100826.88;2617373;31;20027;-53
2021/09/25 10:34:26;;;;;;;10.70;9.52;;;;;;;19.31;100.00;100830.38;2617210;31;20022;-56
2021/09/25 10:36:58;;;;;;;11.88;10.68;;;;;;;19.23;100.00;100834.78;2579698;36;2004580;-52
2021/09/25 10:39:29;;;;;;;9.55;8.75;;;;;;;19.46;100.00;100839.78;2616739;31;20034;-52
2021/09/25 10:42:10;;;;;;;12.45;10.02;;;;;;;19.24;100.00;100844.28;2617032;31;20088;-54
2021/09/25 10:44:49;;;;;;;11.43;10.27;;;;;;;19.17;100.00;100841.75;2615991;36;20610;-52
2021/09/25 10:47:22;;;;;;;11.25;9.63;;;;;;;19.10;100.00;100837.47;2616256;36;20030;-54
2021/09/25 10:49:54;;;;;;;12.25;10.32;;;;;;;18.92;100.00;100841.91;2580157;36;2004360;-54
2021/09/25 10:52:41;;;;;;;10.20;9.20;;;;;;;18.98;100.00;100841.00;2616532;36;20053;-51
2021/09/25 10:55:27;;;;;;;9.10;8.20;;;;;;;19.17;100.00;100844.34;2617291;31;20038;-54
2021/09/25 10:58:13;;;;;;;9.73;8.73;;;;;;;18.99;100.00;100845.31;2579997;36;2004380;-55
2021/09/25 11:00:55;;;;;;;8.88;8.02;;;;;;;18.94;100.00;100849.69;2616792;36;20451;-51
2021/09/25 11:03:49;;;;;;;14.45;9.48;;;;;;;18.85;100.00;100855.78;2580724;31;2004560;-54
2021/09/25 11:06:23;;;;;;;11.13;9.77;;;;;;;18.66;100.00;100859.31;2616375;36;20042;-53
2021/09/25 11:08:53;;;;;;;12.20;10.68;;;;;;;18.48;100.00;100855.06;2580731;36;2005644;-53
2021/09/25 11:11:47;;;;;;;13.20;11.73;;;;;;;18.42;100.00;100860.28;2616181;36;20034;-54
2021/09/25 11:14:23;;;;;;;12.80;11.60;;;;;;;18.45;100.00;100860.28;2616392;36;20027;-55
2021/09/25 11:17:05;;;;;;;12.35;11.25;;;;;;;18.67;100.00;100854.09;2580418;31;2004286;-53
2021/09/25 11:19:37;;;;;;;13.52;12.05;;;;;;;19.32;100.00;100862.41;2616566;36;20019;-52
2021/09/25 11:22:11;;;;;;;12.45;11.25;;;;;;;19.80;100.00;100858.56;2616831;36;20471;-53
2021/09/25 11:24:51;;;;;;;11.70;10.60;;;;;;;20.42;100.00;100871.75;2616196;36;20164;-53
2021/09/25 11:27:22;;;;;;;13.75;11.48;;;;;;;20.28;100.00;100864.09;2579664;36;2004572;-55
2021/09/25 11:30:03;;;;;;;11.27;10.18;;;;;;;19.96;100.00;100867.06;2616349;36;20039;-53
2021/09/25 11:32:45;;;;;;;12.23;11.10;;;;;;;19.45;100.00;100865.75;2617044;31;20031;-56
2021/09/25 11:35:23;;;;;;;15.40;11.65;;;;;;;19.45;100.00;100866.63;2617586;36;20146;-56
2021/09/25 11:37:57;;;;;;;14.18;12.73;;;;;;;19.23;100.00;100858.16;2580926;36;2004370;-57
2021/09/25 11:40:28;;;;;;;14.48;13.02;;;;;;;19.53;100.00;100861.38;2617272;31;20031;-58
2021/09/25 11:43:02;;;;;;;14.80;13.30;;;;;;;20.48;100.00;100863.91;2617580;31;20418;-53
2021/09/25 11:45:39;;;;;;;11.43;10.27;;;;;;;22.21;100.00;100853.38;2618830;31;20038;-49
2021/09/25 11:48:08;;;;;;;10.75;9.65;;;;;;;23.68;90.75;100854.47;2617723;31;20561;-49
2021/09/25 11:50:38;;;;;;;8.52;7.72;;;;;;;25.96;79.97;100858.88;2616363;36;20030;-52
2021/09/25 11:53:12;;;;;;;8.75;7.80;;;;;;;25.65;79.56;100859.94;2617504;31;20458;-50
2021/09/25 11:55:41;;;;;;;8.45;7.55;;;;;;;24.58;85.06;100854.59;2616976;31;20042;-52
2021/09/25 11:58:10;;;;;;;8.05;7.45;;;;;;;24.07;85.40;100853.38;2617031;36;20427;-55
2021/09/25 12:00:46;;;;;;;7.65;6.95;;;;;;;24.04;85.61;100848.25;2617465;31;20022;-51
2021/09/25 12:03:14;;;;;;;;;;;;;;;24.24;85.50;100852.91;2617697;31;20538;-52
2021/09/25 12:05:46;;;;;;;7.10;6.50;;;;;;;24.69;80.61;100849.91;2616738;36;19939;-51
2021/09/25 12:08:19;;;;;;;8.38;7.40;;;;;;;24.64;80.46;100854.44;2617252;31;20026;-50
2021/09/25 12:11:01;;;;;;;8.23;7.43;;;;;;;24.13;84.41;100844.53;2617214;31;20057;-51
2021/09/25 12:13:32;;;;;;;8.35;7.57;;;;;;;23.59;85.35;100837.22;2582169;36;2004750;-55
2021/09/25 12:16:17;;;;;;;8.48;7.65;;;;;;;23.73;85.30;100831.66;2620063;31;20061;-52
2021/09/25 12:18:47;;;;;;;9.73;8.82;;;;;;;23.72;83.81;100836.03;2616959;36;20018;-52
2021/09/25 12:21:32;;;;;;;9.50;8.65;;;;;;;22.92;89.91;100837.09;2617183;31;20675;-51
2021/09/25 12:24:06;;;;;;;10.07;9.02;;;;;;;22.19;93.60;100839.53;2580520;36;2004371;-54
2021/09/25 12:26:38;;;;;;;9.20;8.32;;;;;;;22.44;94.95;100834.66;2618042;31;20065;-53
2021/09/25 12:29:13;;;;;;;11.25;8.70;;;;;;;21.98;97.43;100845.97;2615526;36;20034;-57
2021/09/25 12:31:40;;;;;;;10.23;8.90;;;;;;;22.22;93.38;100844.66;2616497;31;20081;-51
2021/09/25 12:34:15;;;;;;;9.05;8.20;;;;;;;22.31;94.53;100849.69;2617694;31;20592;-51
2021/09/25 12:36:48;;;;;;;10.68;8.80;;;;;;;22.27;93.11;100849.78;2616137;36;20030;-53
2021/09/25 12:39:20;;;;;;;8.57;7.78;;;;;;;22.57;92.14;100853.53;2616523;36;20034;-56
2021/09/25 12:41:53;;;;;;;7.20;6.55;;;;;;;22.61;92.40;100856.03;2617095;31;20026;-55
2021/09/25 12:44:23;;;;;;;8.25;7.55;;;;;;;22.33;94.93;100852.28;2581036;31;2004362;-56
2021/09/25 12:46:56;;;;;;;7.88;7.18;;;;;;;22.96;91.91;100851.81;2616900;31;20022;-50
2021/09/25 12:49:33;;;;;;;7.07;6.47;;;;;;;23.23;89.70;100844.22;2616496;36;20664;-53
2021/09/25 12:52:03;;;;;;;8.02;6.53;;;;;;;22.20;93.63;100850.81;2617420;31;20493;-52
2021/09/25 12:54:32;;;;;;;7.80;6.30;;;;;;;21.79;95.20;100845.44;2616352;36;20038;-52
2021/09/25 12:57:06;;;;;;;8.40;6.97;;;;;;;21.69;94.82;100845.66;2616489;36;20039;-49
2021/09/25 12:59:38;;;;;;;7.57;6.78;;;;;;;21.59;96.08;100847.56;2616547;36;20034;-47
2021/09/25 13:02:11;;;;;;;7.25;6.05;;;;;;;21.54;94.75;100850.25;2616514;36;20034;-47
2021/09/25 13:04:41;;;;;;;8.65;6.00;;;;;;;21.31;98.92;100850.63;2617485;31;20035;-49
2021/09/25 13:07:09;;;;;;;8.13;6.80;;;;;;;21.61;97.63;100851.84;2617142;31;20607;-50
2021/09/25 13:09:50;;;;;;;6.30;5.57;;;;;;;21.42;95.42;100854.78;2616852;36;20038;-52
2021/09/25 13:12:35;;;;;;;5.75;5.15;;;;;;;21.63;97.40;100853.56;2617408;31;20026;-48
2021/09/25 13:15:08;;;;;;;5.65;4.60;;;;;;;21.73;95.45;100857.75;2581011;36;2005742;-51
2021/09/25 13:17:40;;;;;;;5.25;4.72;;;;;;;21.73;93.73;100860.34;2616366;36;20034;-49
2021/09/25 13:20:10;;;;;;;4.22;3.92;;;;;;;21.96;91.95;100865.16;2617222;31;20522;-51
2021/09/25 13:22:41;;;;;;;4.88;4.40;;;;;;;21.86;91.90;100862.72;2616793;31;20038;-52
2021/09/25 13:25:09;;;;;;;4.75;4.28;;;;;;;22.02;90.19;100865.03;2616505;31;20026;-49
2021/09/25 13:27:37;;;;;;;4.68;4.25;;;;;;;22.06;91.49;100859.72;2616690;36;20019;-53
2021/09/25 13:30:05;;;;;;;5.25;4.35;;;;;;;21.81;91.42;100858.44;2617237;31;20022;-51
2021/09/25 13:32:32;;;;;;;6.90;5.00;;;;;;;22.09;90.19;100857.06;2616538;31;20041;-53
2021/09/25 13:34:59;;;;;;;7.35;6.50;;;;;;;22.35;88.43;100863.53;2616882;31;20034;-56
2021/09/25 13:37:27;;;;;;;6.25;5.65;;;;;;;22.61;89.25;100865.63;2616527;31;20034;-50
2021/09/25 13:39:56;;;;;;;6.60;5.72;;;;;;;22.57;88.11;100861.34;2616788;36;20466;-51
2021/09/25 13:42:24;;;;;;;5.63;5.22;;;;;;;22.58;86.45;100856.09;2617045;31;20023;-51
2021/09/25 13:44:52;;;;;;;5.82;5.32;;;;;;;22.30;88.23;100858.41;2616416;36;20053;-48
2021/09/25 13:47:19;;;;;;;6.57;4.80;;;;;;;22.49;87.42;100858.03;2616232;31;20546;-49
2021/09/25 13:49:46;;;;;;;5.55;5.00;;;;;;;22.62;85.28;100856.91;2616551;31;20561;-50
2021/09/25 13:52:14;;;;;;;5.72;5.20;;;;;;;22.63;85.08;100851.63;2616362;36;20022;-53
2021/09/25 13:54:41;;;;;;;6.40;5.60;;;;;;;22.76;83.28;100853.97;2616824;31;20030;-54
2021/09/25 13:57:09;;;;;;;5.95;5.35;;;;;;;22.05;88.07;100851.94;2616291;31;20029;-52
2021/09/25 13:59:39;;;;;;;5.40;4.88;;;;;;;22.53;86.08;100850.13;2616980;31;20038;-49
2021/09/25 14:02:07;;;;;;;6.50;5.30;;;;;;;22.62;86.06;100854.28;2616168;36;20026;-52
2021/09/25 14:04:34;;;;;;;6.68;4.97;;;;;;;22.72;87.11;100853.19;2616397;31;20118;-53
2021/09/25 14:07:04;;;;;;;8.45;5.53;;;;;;;22.58;86.43;100847.41;2616562;31;20042;-51
2021/09/25 14:09:34;;;;;;;5.45;4.97;;;;;;;22.63;88.25;100856.84;2616002;36;20030;-48
2021/09/25 14:12:04;;;;;;;5.70;4.70;;;;;;;22.95;86.86;100857.06;2616827;31;20038;-55
2021/09/25 14:14:31;;;;;;;5.70;5.20;;;;;;;22.72;86.20;100847.97;2617068;31;20034;-53
2021/09/25 14:16:58;;;;;;;6.15;5.20;;;;;;;22.59;87.52;100862.16;2615905;31;20056;-57
2021/09/25 14:19:26;;;;;;;5.70;5.20;;;;;;;22.67;86.98;100859.41;2616104;36;20026;-51
2021/09/25 14:21:53;;;;;;;5.93;5.32;;;;;;;22.49;88.54;100861.50;2616192;31;20034;-55
2021/09/25 14:24:20;;;;;;;8.98;5.20;;;;;;;22.29;90.55;100861.06;2617570;36;20023;-55
2021/09/25 14:26:49;;;;;;;6.05;5.47;;;;;;;22.41;90.75;100857.34;2617815;31;20039;-49
2021/09/25 14:29:37;;;;;;;6.78;5.93;;;;;;;22.08;91.31;100862.28;2580556;36;2004295;-50
2021/09/25 14:32:05;;;;;;;6.38;5.78;;;;;;;22.01;94.07;100860.72;2616935;31;20049;-51
2021/09/25 14:34:32;;;;;;;9.13;5.93;;;;;;;21.87;93.35;100863.56;2616401;31;20038;-57
2021/09/25 14:36:59;;;;;;;8.30;6.60;;;;;;;21.78;92.25;100861.13;2616662;36;20031;-53
2021/09/25 14:39:27;;;;;;;7.65;6.00;;;;;;;21.80;93.30;100854.97;2619269;31;20029;-59
2021/09/25 14:41:59;;;;;;;6.57;5.97;;;;;;;21.61;93.78;100866.63;2616300;36;20038;-55
2021/09/25 14:44:32;;;;;;;7.07;6.43;;;;;;;21.67;93.77;100860.44;2617372;31;20069;-52
2021/09/25 14:46:59;;;;;;;6.00;5.18;;;;;;;21.67;95.94;100857.84;2617060;31;20026;-57
2021/09/25 14:49:27;;;;;;;7.57;6.07;;;;;;;21.46;95.55;100848.66;2615831;36;20035;-52
2021/09/25 14:51:55;;;;;;;6.55;5.90;;;;;;;21.22;97.58;100849.88;2616402;31;20037;-56
2021/09/25 14:54:23;;;;;;;6.25;5.65;;;;;;;21.27;95.85;100853.28;2616890;36;20494;-51
2021/09/25 14:56:55;;;;;;;6.43;5.80;;;;;;;21.20;97.08;100862.91;2616609;36;20436;-50
2021/09/25 14:59:22;;;;;;;6.53;5.68;;;;;;;21.46;94.71;100864.28;2615978;31;20555;-51
2021/09/25 15:01:49;;;;;;;5.93;5.32;;;;;;;22.75;89.13;100871.41;2616179;31;20062;-55
2021/09/25 15:04:17;;;;;;;8.60;5.93;;;;;;;22.16;88.93;100870.88;2616449;36;20054;-53
2021/09/25 15:06:44;;;;;;;7.75;6.03;;;;;;;21.73;92.59;100876.84;2616010;36;20019;-55
2021/09/25 15:09:11;;;;;;;6.93;6.13;;;;;;;21.47;94.78;100879.03;2615781;31;20586;-55
2021/09/25 15:11:41;;;;;;;7.30;6.70;;;;;;;20.93;96.88;100881.53;2616850;36;20051;-58
2021/09/25 15:14:08;;;;;;;6.72;6.18;;;;;;;20.76;98.77;100882.66;2617360;31;20086;-52
2021/09/25 15:16:35;;;;;;;7.47;6.78;;;;;;;20.55;99.56;100865.53;2616837;31;20030;-55
2021/09/25 15:19:02;;;;;;;7.70;7.00;;;;;;;20.32;100.00;100871.00;2616917;36;20050;-57
2021/09/25 15:21:30;;;;;;;9.85;6.63;;;;;;;20.33;100.00;100869.25;2617059;36;20030;-56
2021/09/25 15:23:57;;;;;;;7.63;6.95;;;;;;;20.21;100.00;100872.88;2616903;36;20065;-55
2021/09/25 15:26:24;;;;;;;7.35;6.68;;;;;;;20.28;100.00;100876.25;2617024;31;20042;-54
2021/09/25 15:28:51;;;;;;;7.55;6.85;;;;;;;20.47;100.00;100862.16;2616927;31;20031;-56
2021/09/25 15:31:21;;;;;;;7.63;6.82;;;;;;;20.36;100.00;100869.22;2616687;36;20035;-53
2021/09/25 15:33:49;;;;;;;10.20;6.93;;;;;;;20.58;100.00;100867.25;2617213;36;20045;-55
2021/09/25 15:36:16;;;;;;;7.80;6.60;;;;;;;20.65;100.00;100868.88;2616864;36;20038;-53
2021/09/25 15:38:43;;;;;;;6.20;5.70;;;;;;;20.63;100.00;100869.81;2617751;31;20034;-54
2021/09/25 15:41:10;;;;;;;6.60;5.93;;;;;;;20.66;99.56;100873.25;2617516;36;20030;-61
2021/09/25 15:43:37;;;;;;;7.82;5.82;;;;;;;20.65;99.87;100873.25;2616393;31;20030;-56
2021/09/25 15:46:05;;;;;;;6.60;6.00;;;;;;;20.42;100.00;100874.34;2616789;31;20030;-60
2021/09/25 15:48:32;;;;;;;6.80;6.10;;;;;;;20.43;100.00;100880.41;2616810;31;20022;-57
2021/09/25 15:51:00;;;;;;;6.50;6.00;;;;;;;20.34;100.00;100881.41;2616669;36;20122;-59
2021/09/25 15:53:27;;;;;;;7.30;6.18;;;;;;;20.23;100.00;100886.69;2616558;31;20027;-59
2021/09/25 15:55:54;;;;;;;7.32;6.60;;;;;;;20.08;100.00;100882.53;2616577;36;20023;-59
2021/09/25 15:58:21;;;;;;;6.93;6.32;;;;;;;20.01;100.00;100880.00;2616344;31;20030;-58
2021/09/25 16:00:48;;;;;;;6.65;6.15;;;;;;;19.93;100.00;100889.63;2616389;36;20148;-55
2021/09/25 16:03:17;;;;;;;7.68;6.95;;;;;;;19.77;100.00;100881.09;2616441;36;20027;-56
2021/09/25 16:05:45;;;;;;;7.70;5.95;;;;;;;19.79;100.00;100875.03;2615968;31;20053;-59
2021/09/25 16:08:12;;;;;;;9.30;6.35;;;;;;;19.72;100.00;100878.53;2616439;31;20034;-59
2021/09/25 16:10:43;;;;;;;6.75;6.15;;;;;;;19.70;100.00;100887.25;2616592;36;20042;-57
2021/09/25 16:13:15;;;;;;;7.60;6.78;;;;;;;19.56;100.00;100880.41;2616760;36;20585;-59
2021/09/25 16:15:44;;;;;;;6.97;6.28;;;;;;;19.49;100.00;100885.63;2616365;36;20046;-58
2021/09/25 16:18:13;;;;;;;7.00;6.40;;;;;;;19.39;100.00;100886.59;2618539;31;20030;-58
2021/09/25 16:20:41;;;;;;;7.15;6.55;;;;;;;19.36;100.00;100895.25;2618202;36;20462;-59
2021/09/25 16:23:13;;;;;;;9.30;7.80;;;;;;;19.31;100.00;100891.84;2618050;31;20047;-57
2021/09/25 16:25:40;;;;;;;8.63;7.00;;;;;;;19.26;100.00;100891.00;2618082;31;20038;-55
2021/09/25 16:28:07;;;;;;;8.43;7.68;;;;;;;19.24;100.00;100887.56;2617208;36;20093;-56
2021/09/25 16:30:34;;;;;;;7.22;6.53;;;;;;;19.22;100.00;100891.88;2617726;31;20030;-57
2021/09/25 16:33:02;;;;;;;7.45;6.85;;;;;;;19.08;100.00;100895.44;2617391;31;20029;-58
2021/09/25 16:35:29;;;;;;;8.98;7.13;;;;;;;19.01;100.00;100888.56;2616748;36;20034;-58
2021/09/25 16:37:58;;;;;;;7.72;7.03;;;;;;;18.94;100.00;100892.06;2617106;36;20608;-57
2021/09/25 16:40:26;;;;;;;7.13;6.43;;;;;;;18.82;100.00;100890.41;2617011;36;20023;-60
2021/09/25 16:42:53;;;;;;;7.75;6.95;;;;;;;18.78;100.00;100893.88;2617324;36;20407;-59
2021/09/25 16:45:21;;;;;;;8.18;7.47;;;;;;;18.65;100.00;100887.00;2617779;31;20042;-58
2021/09/25 16:47:48;;;;;;;9.00;7.10;;;;;;;18.56;100.00;100895.66;2616769;36;20545;-59
2021/09/25 16:50:15;;;;;;;7.88;7.03;;;;;;;18.45;100.00;100905.22;2616375;36;20030;-59
2021/09/25 16:52:42;;;;;;;8.43;6.95;;;;;;;18.29;100.00;100899.22;2617284;31;20578;-57
2021/09/25 16:55:09;;;;;;;9.10;8.20;;;;;;;18.20;100.00;100903.56;2616652;36;20038;-59
2021/09/25 16:57:37;;;;;;;14.05;8.55;;;;;;;18.05;100.00;100900.13;2616748;31;20030;-60
2021/09/25 17:00:06;;;;;;;8.98;8.20;;;;;;;17.95;100.00;100902.75;2616304;36;20030;-58
2021/09/25 17:02:33;;;;;;;8.38;7.57;;;;;;;17.81;100.00;100898.44;2616872;31;20035;-59
2021/09/25 17:05:01;;;;;;;8.85;8.07;;;;;;;17.73;100.00;100909.63;2616445;36;20042;-59
2021/09/25 17:07:28;;;;;;;9.55;8.30;;;;;;;17.60;100.00;100900.13;2615645;36;20061;-60
2021/09/25 17:09:56;;;;;;;10.82;9.75;;;;;;;17.48;100.00;100904.44;2616390;36;20034;-57
2021/09/25 17:12:23;;;;;;;11.02;9.30;;;;;;;17.39;100.00;100906.16;2616426;36;20566;-55
2021/09/25 17:14:50;;;;;;;9.93;9.02;;;;;;;17.28;100.00;100908.72;2616693;31;20022;-60
2021/09/25 17:17:18;;;;;;;10.52;9.52;;;;;;;17.20;100.00;100913.91;2617016;31;20089;-58
2021/09/25 17:19:46;;;;;;;11.68;10.48;;;;;;;17.11;100.00;100915.63;2616097;36;20031;-58
2021/09/25 17:22:14;;;;;;;15.23;11.63;;;;;;;17.03;100.00;100925.94;2616308;36;20061;-57
2021/09/25 17:24:43;;;;;;;13.32;11.93;;;;;;;16.93;100.00;100919.88;2616972;31;20119;-56